Time;durP1;ratioP1;P1;durP2;ratioP2;P2;SDS_P1;SDS_P2;PMS_P1;PMS_P2;Temp;Humidity;BMP_temperature;BMP_pressure;BME280_temperature;BME280_humidity;BME280_pressure;Samples;Min_cycle;Max_cycle;Signal;HPM_P1;HPM_P2
2022/11/30 00:02:30;;;;;;;43.10;23.40;;;;;;;6.04;100.00;98452.53;4934577;29;20222;-82
2022/11/30 00:04:56;;;;;;;51.37;24.27;;;;;;;6.02;100.00;98442.09;4934667;29;20599;-82
2022/11/30 00:07:23;;;;;;;44.13;23.90;;;;;;;6.01;100.00;98440.41;4934118;29;20235;-81
2022/11/30 00:09:49;;;;;;;47.50;23.47;;;;;;;5.91;100.00;98440.88;4934167;29;20214;-81
2022/11/30 00:12:16;;;;;;;50.27;25.23;;;;;;;5.95;100.00;98432.81;4934422;29;20230;-81
2022/11/30 00:14:42;;;;;;;49.63;26.07;;;;;;;5.89;100.00;98437.47;4934530;29;20600;-82
2022/11/30 00:17:08;;;;;;;51.37;24.80;;;;;;;5.92;100.00;98435.56;4934179;29;20236;-82
2022/11/30 00:19:36;;;;;;;47.20;24.33;;;;;;;5.91;100.00;98436.47;4934189;29;20714;-82
2022/11/30 00:22:03;;;;;;;50.80;26.27;;;;;;;5.89;100.00;98430.47;4934174;29;20211;-82
2022/11/30 00:24:29;;;;;;;50.13;23.67;;;;;;;5.85;100.00;98431.50;4933952;29;20213;-82
2022/11/30 00:26:56;;;;;;;55.27;26.33;;;;;;;5.88;100.00;98426.16;4933961;29;20230;-81
2022/11/30 00:29:22;;;;;;;53.77;26.47;;;;;;;5.92;100.00;98427.69;4934238;29;20223;-81
2022/11/30 00:31:49;;;;;;;54.40;27.03;;;;;;;5.88;100.00;98426.16;4933247;29;20241;-82
2022/11/30 00:34:15;;;;;;;52.83;27.00;;;;;;;5.90;100.00;98432.16;4932924;29;20222;-81
2022/11/30 00:36:43;;;;;;;50.87;23.60;;;;;;;5.88;100.00;98425.28;4932842;29;20217;-81
2022/11/30 00:39:10;;;;;;;50.97;25.17;;;;;;;5.77;100.00;98420.50;4934196;29;20218;-82
2022/11/30 00:41:36;;;;;;;46.90;25.23;;;;;;;5.76;100.00;98424.03;4934103;29;20209;-82
2022/11/30 00:44:03;;;;;;;50.40;25.63;;;;;;;5.76;100.00;98424.03;4934165;29;20214;-82
2022/11/30 00:46:29;;;;;;;57.93;26.93;;;;;;;5.71;100.00;98420.78;4934971;29;20218;-81
2022/11/30 00:48:56;;;;;;;56.20;28.40;;;;;;;5.78;100.00;98423.94;4937836;29;20234;-81
2022/11/30 00:51:22;;;;;;;55.70;26.93;;;;;;;5.76;100.00;98437.16;4937802;29;20234;-81
2022/11/30 00:53:50;;;;;;;53.10;24.10;;;;;;;5.76;100.00;98426.66;4937805;29;20222;-81
2022/11/30 00:56:16;;;;;;;61.70;28.07;;;;;;;5.79;100.00;98423.91;4937602;29;20211;-81
2022/11/30 00:58:43;;;;;;;58.50;25.67;;;;;;;5.77;100.00;98423.13;4937787;29;20242;-81
2022/11/30 01:01:10;;;;;;;64.90;28.83;;;;;;;5.81;100.00;98423.88;4937641;29;20218;-81
2022/11/30 01:03:37;;;;;;;60.13;27.43;;;;;;;5.81;100.00;98424.69;4937634;29;20233;-81
2022/11/30 01:06:04;;;;;;;54.00;26.53;;;;;;;5.87;100.00;98428.84;4937412;29;20281;-82
2022/11/30 01:08:30;;;;;;;53.17;26.47;;;;;;;5.90;100.00;98429.53;4937868;29;20239;-82
2022/11/30 01:11:05;;;;;;;62.30;28.47;;;;;;;5.86;100.00;98427.13;4937564;29;20215;-81
2022/11/30 01:13:31;;;;;;;58.83;28.17;;;;;;;5.91;100.00;98430.38;4937515;29;20225;-81
2022/11/30 01:15:58;;;;;;;53.10;25.60;;;;;;;5.89;100.00;98425.22;4937334;29;20208;-81
2022/11/30 01:18:25;;;;;;;51.53;25.13;;;;;;;5.92;100.00;98427.69;4937094;29;20792;-82
2022/11/30 01:20:51;;;;;;;49.60;25.37;;;;;;;5.90;100.00;98428.69;4937569;29;20213;-81
2022/11/30 01:23:18;;;;;;;51.67;24.67;;;;;;;5.90;100.00;98431.28;4937396;29;20228;-81
2022/11/30 01:25:53;;;;;;;50.83;24.23;;;;;;;5.90;100.00;98441.78;4937386;29;20209;-81
2022/11/30 01:28:21;;;;;;;48.50;24.67;;;;;;;5.88;100.00;98436.63;4937027;29;20293;-81
2022/11/30 01:30:56;;;;;;;45.07;24.60;;;;;;;5.86;100.00;98441.09;4937153;29;20589;-81
2022/11/30 01:33:22;;;;;;;51.03;25.17;;;;;;;5.87;100.00;98439.31;4937285;29;20256;-81
2022/11/30 01:35:49;;;;;;;47.00;25.50;;;;;;;5.85;100.00;98435.91;4936854;29;20225;-81
2022/11/30 01:38:15;;;;;;;52.57;25.70;;;;;;;5.79;100.00;98447.50;4936902;29;20240;-82
2022/11/30 01:40:49;;;;;;;45.30;23.10;;;;;;;5.77;100.00;98448.47;4937014;29;20213;-81
2022/11/30 01:43:17;;;;;;;48.77;22.90;;;;;;;5.78;100.00;98447.56;4937435;29;20221;-81
2022/11/30 01:45:45;;;;;;;57.63;26.17;;;;;;;5.81;100.00;98447.47;4937092;29;20225;-81
2022/11/30 01:48:11;;;;;;;54.43;26.13;;;;;;;5.83;100.00;98449.09;4936765;29;20244;-81
2022/11/30 01:50:38;;;;;;;56.17;26.40;;;;;;;5.86;100.00;98441.09;4936896;29;20574;-82
2022/11/30 01:53:08;;;;;;;49.13;24.03;;;;;;;5.89;100.00;98451.44;4936875;29;20234;-81
2022/11/30 01:55:37;;;;;;;55.97;27.63;;;;;;;5.85;100.00;98439.38;4936620;29;20212;-81
2022/11/30 01:58:08;;;;;;;52.53;25.10;;;;;;;5.81;100.00;98440.44;4934964;29;20257;-81
2022/11/30 02:00:35;;;;;;;50.87;25.23;;;;;;;5.88;100.00;98446.25;4936713;29;20218;-81
2022/11/30 02:03:09;;;;;;;51.20;25.10;;;;;;;5.81;100.00;98445.69;4936670;29;20216;-81
2022/11/30 02:05:38;;;;;;;47.63;24.23;;;;;;;5.81;100.00;98450.94;4936531;29;20254;-81
2022/11/30 02:08:05;;;;;;;51.97;25.67;;;;;;;5.87;100.00;98449.81;4936253;29;20245;-81
2022/11/30 02:10:35;;;;;;;51.17;25.47;;;;;;;5.82;100.00;98452.66;4936487;29;20210;-80
2022/11/30 02:13:29;;;;;;;50.93;25.63;;;;;;;5.81;100.00;98450.09;4936519;29;20234;-80
2022/11/30 02:16:05;;;;;;;45.00;23.10;;;;;;;5.82;100.00;98450.03;4934603;29;20715;-81
2022/11/30 02:18:43;;;;;;;50.50;25.40;;;;;;;5.78;100.00;98445.81;4936431;29;20245;-80
2022/11/30 02:21:16;;;;;;;41.87;22.17;;;;;;;5.78;100.00;98451.03;4936570;29;20198;-81
2022/11/30 02:24:06;;;;;;;45.43;24.27;;;;;;;5.74;100.00;98449.47;4936169;29;20221;-80
2022/11/30 02:26:51;;;;;;;49.80;24.37;;;;;;;5.75;100.00;98455.56;4935924;29;20214;-82
2022/11/30 02:29:24;;;;;;;44.20;23.87;;;;;;;5.73;100.00;98453.03;4936033;29;20218;-82
2022/11/30 02:31:57;;;;;;;46.47;24.57;;;;;;;5.74;100.00;98453.88;4936016;29;20232;-81
2022/11/30 02:34:28;;;;;;;44.70;22.40;;;;;;;5.73;100.00;98445.16;4936171;29;20222;-80
2022/11/30 02:36:56;;;;;;;45.00;23.00;;;;;;;5.70;100.00;98445.31;4935717;29;20215;-82
2022/11/30 02:39:23;;;;;;;45.80;23.13;;;;;;;5.71;100.00;98447.00;4936007;29;20221;-81
2022/11/30 02:41:49;;;;;;;46.23;24.13;;;;;;;5.72;100.00;98451.31;4935703;29;20671;-81
2022/11/30 02:44:17;;;;;;;46.57;23.10;;;;;;;5.68;100.00;98451.53;4936158;29;20241;-82
2022/11/30 02:46:54;;;;;;;46.20;22.83;;;;;;;5.68;100.00;98454.16;4935759;29;20219;-80
2022/11/30 02:49:30;;;;;;;39.43;20.70;;;;;;;5.69;100.00;98446.19;4935883;29;20213;-81
2022/11/30 02:51:58;;;;;;;44.60;23.73;;;;;;;5.74;100.00;98449.47;4935669;29;20235;-81
2022/11/30 02:54:25;;;;;;;44.70;23.57;;;;;;;5.73;100.00;98446.94;4935610;29;20211;-80
2022/11/30 02:56:51;;;;;;;45.50;23.90;;;;;;;5.70;100.00;98445.31;4935192;29;20223;-81
2022/11/30 02:59:18;;;;;;;48.33;24.13;;;;;;;5.71;100.00;98451.38;4935719;29;20214;-81
2022/11/30 03:01:44;;;;;;;44.90;24.20;;;;;;;5.73;100.00;98446.94;4935658;29;20221;-81
2022/11/30 03:04:12;;;;;;;43.63;21.70;;;;;;;5.70;100.00;98452.31;4935479;29;20666;-81
2022/11/30 03:06:39;;;;;;;45.00;23.47;;;;;;;5.67;100.00;98447.22;4935135;29;20214;-81
2022/11/30 03:09:05;;;;;;;40.33;21.43;;;;;;;5.65;100.00;98455.13;4934933;29;20227;-81
2022/11/30 03:11:33;;;;;;;41.10;21.30;;;;;;;5.70;100.00;98447.94;4935515;29;20221;-81
2022/11/30 03:13:59;;;;;;;38.33;20.20;;;;;;;5.68;100.00;98451.53;4935351;29;20206;-81
2022/11/30 03:16:26;;;;;;;38.97;20.33;;;;;;;5.67;100.00;98453.28;4934946;29;20728;-81
2022/11/30 03:18:53;;;;;;;42.10;21.47;;;;;;;5.71;100.00;98454.00;4935047;29;20255;-81
2022/11/30 03:21:20;;;;;;;38.10;20.87;;;;;;;5.68;100.00;98449.75;4935311;29;20237;-81
2022/11/30 03:23:47;;;;;;;42.33;22.80;;;;;;;5.70;100.00;98461.03;4935171;29;20229;-81
2022/11/30 03:26:13;;;;;;;45.00;21.83;;;;;;;5.73;100.00;98462.66;4934993;29;20237;-81
2022/11/30 03:28:40;;;;;;;44.00;23.37;;;;;;;5.75;100.00;98461.66;4935118;29;20229;-81
2022/11/30 03:31:06;;;;;;;47.03;22.97;;;;;;;5.76;100.00;98463.38;4935014;29;20216;-81
2022/11/30 03:33:33;;;;;;;44.03;23.43;;;;;;;5.76;100.00;98460.75;4935039;29;20234;-81
2022/11/30 03:36:01;;;;;;;35.33;19.97;;;;;;;5.76;100.00;98466.00;4934445;29;20590;-81
2022/11/30 03:38:29;;;;;;;34.13;19.93;;;;;;;5.76;100.00;98463.38;4934615;29;20744;-81
2022/11/30 03:41:02;;;;;;;40.07;19.70;;;;;;;5.72;100.00;98461.81;4935009;29;20218;-81
2022/11/30 03:43:29;;;;;;;33.33;20.00;;;;;;;5.71;100.00;98467.97;4934733;29;20653;-80
2022/11/30 03:45:56;;;;;;;36.13;20.27;;;;;;;5.76;100.00;98460.75;4934618;29;20681;-80
2022/11/30 03:48:23;;;;;;;37.57;20.20;;;;;;;5.72;100.00;98464.44;4934376;29;20239;-80
2022/11/30 03:50:50;;;;;;;41.90;21.40;;;;;;;5.70;100.00;98468.91;4934841;29;20213;-80
2022/11/30 03:53:16;;;;;;;36.17;21.40;;;;;;;5.74;100.00;98470.44;4934869;29;20237;-81
2022/11/30 03:55:44;;;;;;;35.57;17.97;;;;;;;5.70;100.00;98463.66;4934534;29;20214;-80
2022/11/30 03:58:11;;;;;;;39.10;20.73;;;;;;;5.71;100.00;98460.13;4934244;29;20260;-80
2022/11/30 04:00:37;;;;;;;39.63;20.53;;;;;;;5.67;100.00;98463.78;4934599;29;20587;-81
2022/11/30 04:03:04;;;;;;;38.07;20.17;;;;;;;5.74;100.00;98465.19;4934358;29;20218;-80
2022/11/30 04:05:31;;;;;;;37.63;21.27;;;;;;;5.83;100.00;98466.59;4934268;29;20700;-80
2022/11/30 04:07:57;;;;;;;38.23;20.40;;;;;;;5.72;100.00;98461.81;4933940;29;20235;-81
2022/11/30 04:10:24;;;;;;;34.57;19.30;;;;;;;5.76;100.00;98463.38;4934322;29;20214;-80
2022/11/30 04:12:52;;;;;;;40.87;20.33;;;;;;;5.74;100.00;98465.19;4934331;29;20348;-81
2022/11/30 04:15:18;;;;;;;35.13;19.53;;;;;;;5.74;100.00;98464.38;4934219;29;20212;-81
2022/11/30 04:17:45;;;;;;;34.60;19.30;;;;;;;5.73;100.00;98460.88;4933765;29;20238;-81
2022/11/30 04:20:12;;;;;;;34.90;19.77;;;;;;;5.75;100.00;98466.91;4934174;29;20210;-81
2022/11/30 04:22:38;;;;;;;28.93;16.83;;;;;;;5.74;100.00;98467.81;4933804;29;20212;-81
2022/11/30 04:25:05;;;;;;;29.63;18.43;;;;;;;5.77;100.00;98469.47;4934190;29;20225;-81
2022/11/30 04:27:32;;;;;;;33.53;17.57;;;;;;;5.77;100.00;98457.22;4933824;29;20230;-81
2022/11/30 04:30:00;;;;;;;32.47;17.93;;;;;;;5.77;100.00;98465.09;4934178;29;20232;-80
2022/11/30 04:32:26;;;;;;;33.23;17.63;;;;;;;5.77;100.00;98465.09;4934306;29;20239;-80
2022/11/30 04:34:53;;;;;;;35.00;18.27;;;;;;;5.76;100.00;98465.16;4934132;29;20214;-81
2022/11/30 04:37:19;;;;;;;36.40;17.77;;;;;;;5.77;100.00;98472.09;4933763;29;20245;-80
2022/11/30 04:39:46;;;;;;;31.13;17.27;;;;;;;5.75;100.00;98472.16;4934088;29;20215;-80
2022/11/30 04:42:12;;;;;;;33.17;18.37;;;;;;;5.78;100.00;98466.78;4934029;29;20219;-81
2022/11/30 04:44:39;;;;;;;30.67;17.50;;;;;;;5.71;100.00;98465.34;4933947;29;20215;-81
2022/11/30 04:47:07;;;;;;;29.30;16.73;;;;;;;5.62;100.00;98470.16;4933851;29;20238;-80
2022/11/30 04:49:33;;;;;;;30.80;17.30;;;;;;;5.58;100.00;98468.56;4934130;29;20217;-81
2022/11/30 04:52:00;;;;;;;29.07;15.47;;;;;;;5.57;100.00;98467.72;4934076;29;20218;-81
2022/11/30 04:54:26;;;;;;;37.07;18.03;;;;;;;5.58;100.00;98469.44;4933843;29;20235;-80
2022/11/30 04:56:53;;;;;;;35.43;18.13;;;;;;;5.55;100.00;98474.81;4933895;29;20214;-80
2022/11/30 04:59:19;;;;;;;30.60;16.43;;;;;;;5.56;100.00;98468.63;4989601;23;20261;-85
2022/11/30 05:01:46;;;;;;;34.57;19.73;;;;;;;5.60;100.00;98466.72;4953088;29;20217;-85
2022/11/30 05:04:13;;;;;;;33.03;17.80;;;;;;;5.68;100.00;98462.03;4953147;29;20214;-84
2022/11/30 05:06:40;;;;;;;32.43;18.50;;;;;;;5.66;100.00;98467.31;4952726;29;20218;-85
2022/11/30 05:09:06;;;;;;;30.27;17.23;;;;;;;5.69;100.00;98466.34;4936068;29;20261;-83
2022/11/30 05:11:33;;;;;;;30.43;17.93;;;;;;;5.68;100.00;98475.13;4933665;29;20214;-83
2022/11/30 05:13:59;;;;;;;30.87;17.57;;;;;;;5.66;100.00;98472.56;4933549;29;20233;-83
2022/11/30 05:16:26;;;;;;;31.30;17.07;;;;;;;5.64;100.00;98473.56;4933521;29;20214;-83
2022/11/30 05:18:52;;;;;;;31.83;17.30;;;;;;;5.63;100.00;98472.69;4933590;29;20755;-83
2022/11/30 05:21:20;;;;;;;28.10;15.07;;;;;;;5.55;100.00;98471.34;4933851;29;20214;-85
2022/11/30 05:23:47;;;;;;;33.00;18.07;;;;;;;5.57;100.00;98472.13;4933531;29;20686;-83
2022/11/30 05:26:14;;;;;;;32.53;16.93;;;;;;;5.59;100.00;98481.63;4933225;29;20630;-83
2022/11/30 05:28:40;;;;;;;31.97;16.87;;;;;;;5.59;100.00;98481.63;4933590;29;20244;-83
2022/11/30 05:31:07;;;;;;;33.30;17.90;;;;;;;5.60;100.00;98478.09;4933533;29;20736;-83
2022/11/30 05:33:34;;;;;;;29.13;16.10;;;;;;;5.65;100.00;98481.38;4936140;29;20233;-83
2022/11/30 05:36:00;;;;;;;31.33;17.67;;;;;;;5.66;100.00;98487.44;4937003;29;20590;-83
2022/11/30 05:38:28;;;;;;;30.73;17.10;;;;;;;5.62;100.00;98488.50;4936899;29;20233;-84
2022/11/30 05:40:59;;;;;;;31.23;17.60;;;;;;;5.64;100.00;98484.03;4936879;29;20210;-83
2022/11/30 05:43:26;;;;;;;27.47;16.60;;;;;;;5.61;100.00;98484.19;4936782;29;20678;-83
2022/11/30 05:45:52;;;;;;;28.63;16.53;;;;;;;5.63;100.00;98493.66;4936838;29;20217;-83
2022/11/30 05:48:19;;;;;;;33.10;17.20;;;;;;;5.63;100.00;98493.66;4936743;29;20233;-83
2022/11/30 05:50:45;;;;;;;28.87;15.53;;;;;;;5.57;100.00;98483.44;4936973;29;20217;-83
2022/11/30 05:53:12;;;;;;;31.77;17.27;;;;;;;5.58;100.00;98482.56;4936550;29;20237;-83
2022/11/30 05:55:39;;;;;;;26.93;15.57;;;;;;;5.61;100.00;98490.28;4936394;29;20725;-83
2022/11/30 05:58:06;;;;;;;31.87;15.93;;;;;;;5.58;100.00;98495.66;4936448;29;20246;-83
2022/11/30 06:00:32;;;;;;;33.97;15.87;;;;;;;5.64;100.00;98491.91;4936768;29;20225;-83
2022/11/30 06:02:59;;;;;;;30.93;17.33;;;;;;;5.66;100.00;98488.31;4936683;29;20210;-83
2022/11/30 06:05:26;;;;;;;30.27;17.40;;;;;;;5.70;100.00;98492.50;4936412;29;20222;-83
2022/11/30 06:07:52;;;;;;;30.10;17.23;;;;;;;5.66;100.00;98493.53;4936176;29;20234;-82
2022/11/30 06:10:19;;;;;;;28.93;15.87;;;;;;;5.70;100.00;98487.25;4936381;29;20690;-84
2022/11/30 06:12:47;;;;;;;28.43;17.13;;;;;;;5.76;100.00;98480.88;4936545;29;20234;-83
2022/11/30 06:15:14;;;;;;;33.00;17.40;;;;;;;5.69;100.00;98488.16;4936568;29;20309;-84
2022/11/30 06:17:40;;;;;;;27.83;16.07;;;;;;;5.76;100.00;98488.75;4936274;29;20230;-84
2022/11/30 06:20:08;;;;;;;27.70;15.83;;;;;;;5.79;100.00;98493.84;4936065;29;20210;-84
2022/11/30 06:22:34;;;;;;;29.40;16.20;;;;;;;5.72;100.00;98493.28;4936064;29;20616;-83
2022/11/30 06:25:01;;;;;;;25.83;15.50;;;;;;;5.74;100.00;98491.44;4936107;29;20693;-83
2022/11/30 06:27:30;;;;;;;28.30;16.63;;;;;;;5.70;100.00;98492.50;4935910;29;20262;-83
2022/11/30 06:29:58;;;;;;;26.90;15.33;;;;;;;5.74;100.00;98486.19;4936223;29;20236;-83
2022/11/30 06:32:24;;;;;;;27.73;15.67;;;;;;;5.69;100.00;98482.91;4935904;29;20265;-83
2022/11/30 06:34:51;;;;;;;29.13;16.10;;;;;;;5.72;100.00;98482.78;4935821;29;20240;-83
2022/11/30 06:37:17;;;;;;;25.23;14.30;;;;;;;5.72;100.00;98493.28;4935598;29;20215;-83
2022/11/30 06:39:44;;;;;;;29.00;16.87;;;;;;;5.70;100.00;98481.16;4935875;29;20335;-83
2022/11/30 06:42:10;;;;;;;26.67;16.07;;;;;;;5.73;100.00;98484.50;4935949;29;20212;-83
2022/11/30 06:44:37;;;;;;;26.57;15.30;;;;;;;5.81;100.00;98492.88;4934988;29;20212;-83
2022/11/30 06:47:04;;;;;;;29.57;16.03;;;;;;;5.74;100.00;98491.44;4935627;29;20597;-83
2022/11/30 06:49:31;;;;;;;24.53;15.17;;;;;;;5.78;100.00;98493.00;4935620;29;20218;-84
2022/11/30 06:51:57;;;;;;;24.30;14.07;;;;;;;5.75;100.00;98493.13;4935436;29;20249;-82
2022/11/30 06:54:24;;;;;;;25.90;15.63;;;;;;;5.82;100.00;98497.25;4935767;29;20245;-83
2022/11/30 06:56:50;;;;;;;24.20;13.67;;;;;;;5.85;100.00;98499.72;4935366;29;20218;-84
2022/11/30 06:59:17;;;;;;;24.00;15.30;;;;;;;5.77;100.00;98496.56;4935281;29;20249;-85
2022/11/30 07:01:44;;;;;;;27.03;15.13;;;;;;;5.77;100.00;98496.56;4935566;29;20220;-83
2022/11/30 07:04:12;;;;;;;25.17;14.53;;;;;;;5.78;100.00;98498.25;4935417;29;20216;-86
2022/11/30 07:06:38;;;;;;;23.50;14.23;;;;;;;5.85;100.00;98504.97;4935630;29;20219;-85
2022/11/30 07:09:05;;;;;;;23.73;12.97;;;;;;;5.81;100.00;98503.38;4935376;29;20243;-89
2022/11/30 07:11:32;;;;;;;23.50;13.50;;;;;;;5.79;100.00;98505.19;4935443;29;20215;-81
2022/11/30 07:13:58;;;;;;;26.93;14.07;;;;;;;5.80;100.00;98509.53;4935230;29;20241;-87
2022/11/30 07:16:25;;;;;;;26.47;14.13;;;;;;;5.82;100.00;98505.09;4934976;29;20222;-83
2022/11/30 07:18:51;;;;;;;24.83;14.30;;;;;;;5.84;100.00;98503.25;4934971;29;20230;-83
2022/11/30 07:21:19;;;;;;;22.30;12.90;;;;;;;5.86;100.00;98511.91;4935036;29;20703;-84
2022/11/30 07:26:30;;;;;;;22.43;13.23;;;;;;;5.77;100.00;98514.03;4934685;29;20244;-86
2022/11/30 07:28:57;;;;;;;23.20;13.97;;;;;;;5.74;100.00;98512.41;4934899;29;20325;-83
2022/11/30 07:31:26;;;;;;;21.70;12.23;;;;;;;5.74;100.00;98517.66;4934578;29;20680;-84
2022/11/30 07:33:52;;;;;;;25.87;15.17;;;;;;;5.76;100.00;98521.09;4935036;29;20246;-84
2022/11/30 07:36:22;;;;;;;27.13;14.40;;;;;;;5.80;100.00;98522.66;4934765;29;20227;-83
2022/11/30 07:38:49;;;;;;;25.60;14.10;;;;;;;5.83;100.00;98511.19;4934697;29;20230;-83
2022/11/30 07:41:15;;;;;;;22.53;13.60;;;;;;;5.85;100.00;98514.59;4934782;29;20214;-84
2022/11/30 07:43:42;;;;;;;25.17;13.93;;;;;;;5.88;100.00;98515.31;4934651;29;20569;-81
2022/11/30 07:46:11;;;;;;;25.80;13.97;;;;;;;5.83;100.00;98517.31;4934379;29;20228;-78
2022/11/30 07:48:37;;;;;;;25.88;14.70;;;;;;;5.81;100.00;98513.03;4934712;29;20557;-81
2022/11/30 07:51:06;;;;;;;25.13;14.77;;;;;;;5.85;100.00;98512.81;4932890;29;20219;-90
2022/11/30 07:53:34;;;;;;;24.47;14.37;;;;;;;5.87;100.00;98518.84;4933129;29;20254;-87
2022/11/30 07:56:05;;;;;;;23.07;14.03;;;;;;;5.95;100.00;98511.50;4933484;29;20221;-88
2022/11/30 07:58:32;;;;;;;22.50;13.10;;;;;;;5.97;100.00;98521.91;4933384;29;20673;-87
2022/11/30 08:01:03;;;;;;;24.07;13.93;;;;;;;6.02;100.00;98518.19;4931390;29;20218;-88
2022/11/30 08:03:30;;;;;;;21.00;13.67;;;;;;;6.07;100.00;98529.31;4933538;29;20209;-87
2022/11/30 08:06:01;;;;;;;22.80;13.73;;;;;;;6.10;100.00;98536.22;4933912;29;20218;-88
2022/11/30 08:08:30;;;;;;;24.60;13.27;;;;;;;6.11;100.00;98538.75;4933504;29;20233;-87
2022/11/30 08:10:58;;;;;;;21.70;13.13;;;;;;;6.18;100.00;98528.84;4933192;29;20651;-87
2022/11/30 08:13:25;;;;;;;23.33;13.10;;;;;;;6.25;100.00;98531.13;4933593;29;20246;-90
2022/11/30 08:15:51;;;;;;;20.17;11.90;;;;;;;6.31;100.00;98536.09;4933301;29;20215;-89
2022/11/30 08:18:18;;;;;;;23.50;13.60;;;;;;;6.38;100.00;98536.63;4933702;29;20245;-90
2022/11/30 08:20:45;;;;;;;22.20;12.97;;;;;;;6.40;100.00;98540.91;4933543;29;20223;-90
2022/11/30 08:23:12;;;;;;;23.10;13.63;;;;;;;6.47;100.00;98544.09;4933635;29;20285;-90
2022/11/30 08:25:38;;;;;;;26.20;14.40;;;;;;;6.51;100.00;98537.78;4933574;29;20215;-88
2022/11/30 08:28:06;;;;;;;24.47;14.37;;;;;;;6.58;100.00;98534.78;4932723;29;20240;-84
2022/11/30 08:30:33;;;;;;;24.97;14.40;;;;;;;6.65;100.00;98540.63;4933200;29;20226;-86
2022/11/30 08:32:59;;;;;;;22.10;13.40;;;;;;;6.73;100.00;98538.47;4933319;29;20222;-86
2022/11/30 08:35:26;;;;;;;24.33;13.57;;;;;;;6.79;100.00;98540.81;4933143;29;20717;-87
2022/11/30 08:37:52;;;;;;;23.70;13.90;;;;;;;6.86;100.00;98544.84;4933038;29;20235;-87
2022/11/30 08:40:19;;;;;;;23.87;13.90;;;;;;;6.89;100.00;98549.97;4932954;29;20577;-87
2022/11/30 08:42:45;;;;;;;22.43;13.80;;;;;;;6.90;100.00;98555.13;4933323;29;20225;-87
2022/11/30 08:45:13;;;;;;;22.97;14.03;;;;;;;6.93;100.00;98546.25;4933240;29;20220;-87
2022/11/30 08:47:40;;;;;;;27.70;15.17;;;;;;;6.88;100.00;98551.72;4933014;29;20238;-87
2022/11/30 08:50:07;;;;;;;24.30;14.10;;;;;;;6.89;100.00;98545.53;4932885;29;20296;-87
2022/11/30 08:52:34;;;;;;;24.17;14.63;;;;;;;6.91;100.00;98556.81;4932967;29;20753;-87
2022/11/30 08:55:00;;;;;;;20.43;12.73;;;;;;;6.90;100.00;98559.53;4933041;29;20247;-87
2022/11/30 08:57:27;;;;;;;23.77;13.87;;;;;;;6.88;100.00;98559.59;4932843;29;20235;-87
2022/11/30 08:59:53;;;;;;;24.10;14.83;;;;;;;6.87;100.00;98559.69;4932699;29;20221;-86
2022/11/30 09:02:21;;;;;;;22.97;14.17;;;;;;;6.85;100.00;98564.16;4931791;29;20217;-87
2022/11/30 09:04:49;;;;;;;26.83;16.23;;;;;;;6.84;100.00;98567.72;4932783;29;20236;-87
2022/11/30 09:07:16;;;;;;;28.67;16.73;;;;;;;6.81;100.00;98568.72;4933460;29;20242;-87
2022/11/30 09:09:43;;;;;;;26.10;15.43;;;;;;;6.76;100.00;98573.31;4936617;29;20220;-87
2022/11/30 09:12:09;;;;;;;29.40;17.13;;;;;;;6.77;100.00;98566.31;4936954;29;20529;-87
2022/11/30 09:14:36;;;;;;;29.63;15.93;;;;;;;6.83;100.00;98577.38;4936759;29;20230;-87
2022/11/30 09:17:02;;;;;;;27.80;16.13;;;;;;;6.87;100.00;98572.81;4936479;29;20218;-87
2022/11/30 09:19:30;;;;;;;29.47;16.97;;;;;;;6.91;100.00;98580.47;4936757;29;20218;-87
2022/11/30 09:21:57;;;;;;;26.17;16.17;;;;;;;6.99;100.00;98577.47;4937195;29;20215;-87
2022/11/30 09:24:23;;;;;;;27.57;16.83;;;;;;;7.10;100.00;98581.31;4937332;29;20223;-86
2022/11/30 09:26:50;;;;;;;25.57;15.53;;;;;;;7.11;100.00;98584.78;4935789;29;20245;-86
2022/11/30 09:29:16;;;;;;;24.20;14.60;;;;;;;7.11;100.00;98584.78;4936602;29;20236;-86
2022/11/30 09:31:43;;;;;;;25.87;15.43;;;;;;;7.12;100.00;98587.34;4936744;29;20210;-86
2022/11/30 09:34:11;;;;;;;27.67;15.73;;;;;;;7.11;100.00;98582.16;4936303;29;20238;-86
2022/11/30 09:36:39;;;;;;;26.73;15.77;;;;;;;7.17;100.00;98584.47;4936328;29;20219;-86
2022/11/30 09:39:06;;;;;;;28.67;16.27;;;;;;;7.16;100.00;98583.66;4936330;29;20253;-86
2022/11/30 09:41:59;;;;;;;25.30;14.97;;;;;;;7.17;100.00;98581.84;4935967;29;20704;-87
2022/11/30 09:44:38;;;;;;;25.87;14.83;;;;;;;7.15;100.00;98584.56;4936216;29;20217;-86
2022/11/30 09:47:19;;;;;;;25.30;14.67;;;;;;;7.08;100.00;98583.16;4935550;29;20223;-86
2022/11/30 09:49:47;;;;;;;26.33;15.80;;;;;;;7.06;100.00;98584.13;4936103;29;20215;-86
2022/11/30 09:52:20;;;;;;;24.83;14.93;;;;;;;6.99;100.00;98578.34;4936201;29;20220;-81
2022/11/30 09:54:47;;;;;;;25.10;15.53;;;;;;;7.02;100.00;98582.59;4936558;29;20255;-88
2022/11/30 09:57:25;;;;;;;24.23;14.60;;;;;;;7.02;100.00;98572.94;4935826;29;20212;-85
2022/11/30 09:59:55;;;;;;;21.80;13.40;;;;;;;7.08;100.00;98577.88;4936766;29;20225;-85
2022/11/30 10:02:26;;;;;;;24.97;15.50;;;;;;;7.06;100.00;98579.75;4936593;29;20225;-85
2022/11/30 10:04:53;;;;;;;23.73;14.13;;;;;;;7.10;100.00;98583.94;4936450;29;20207;-86
2022/11/30 10:07:43;;;;;;;24.63;14.43;;;;;;;7.11;100.00;98579.53;4935930;29;20235;-85
2022/11/30 10:10:22;;;;;;;23.53;14.40;;;;;;;7.11;100.00;98577.75;4936678;29;20212;-85
2022/11/30 10:12:59;;;;;;;21.97;13.17;;;;;;;7.10;100.00;98569.94;4936502;29;20218;-85
2022/11/30 10:15:34;;;;;;;22.43;13.33;;;;;;;7.11;100.00;98572.50;4936259;29;20231;-85
2022/11/30 10:18:11;;;;;;;19.50;12.27;;;;;;;7.17;100.00;98572.22;4935793;29;20257;-85
2022/11/30 10:20:54;;;;;;;18.77;11.93;;;;;;;7.20;100.00;98566.78;4935724;29;20219;-85
2022/11/30 10:23:36;;;;;;;19.23;11.90;;;;;;;7.21;100.00;98560.59;4936501;29;20214;-86
2022/11/30 10:26:08;;;;;;;22.33;13.07;;;;;;;7.24;100.00;98563.91;4935718;29;20204;-85
2022/11/30 10:28:48;;;;;;;19.87;11.43;;;;;;;7.22;100.00;98567.59;4935753;29;20648;-80
2022/11/30 10:31:16;;;;;;;20.87;12.50;;;;;;;7.16;100.00;98567.00;4935956;29;20222;-79
2022/11/30 10:33:46;;;;;;;18.70;12.13;;;;;;;7.21;100.00;98567.66;4935775;29;20220;-82
2022/11/30 10:36:17;;;;;;;16.73;10.93;;;;;;;7.18;100.00;98560.75;4935700;29;20224;-85
2022/11/30 10:38:49;;;;;;;18.80;11.90;;;;;;;7.21;100.00;98565.03;4935940;29;20239;-85
2022/11/30 10:41:21;;;;;;;19.23;12.27;;;;;;;7.29;100.00;98561.09;4936200;29;20230;-88
2022/11/30 10:43:52;;;;;;;18.27;11.60;;;;;;;7.30;100.00;98560.16;4936752;29;20219;-88
2022/11/30 10:46:25;;;;;;;20.70;11.87;;;;;;;7.30;100.00;98562.78;4936123;29;20220;-90
2022/11/30 10:48:57;;;;;;;17.60;12.30;;;;;;;7.29;100.00;98553.19;4936006;29;20710;-87
2022/11/30 10:51:25;;;;;;;19.70;12.33;;;;;;;7.32;100.00;98555.66;4936215;29;20271;-89
2022/11/30 10:53:53;;;;;;;17.13;11.20;;;;;;;7.33;100.00;98547.72;4936138;29;20235;-90
2022/11/30 10:56:20;;;;;;;20.00;12.73;;;;;;;7.29;100.00;98553.19;4935849;29;20212;-81
2022/11/30 10:58:53;;;;;;;17.40;10.63;;;;;;;7.32;100.00;98551.28;4948191;23;20243;-81
2022/11/30 11:01:33;;;;;;;16.70;10.80;;;;;;;7.34;100.00;98543.31;4935511;29;20219;-82
2022/11/30 11:04:15;;;;;;;16.43;10.67;;;;;;;7.42;100.00;98541.16;4935514;29;20219;-83
2022/11/30 11:06:45;;;;;;;16.70;10.93;;;;;;;7.40;100.00;98540.34;4934292;29;20210;-80
2022/11/30 11:09:36;;;;;;;14.93;10.37;;;;;;;7.37;100.00;98543.16;4935531;29;20239;-82
2022/11/30 11:12:05;;;;;;;16.47;10.43;;;;;;;7.37;100.00;98543.16;4935443;29;20324;-82
2022/11/30 11:14:32;;;;;;;16.83;9.73;;;;;;;7.41;100.00;98540.28;4935275;29;20327;-82
2022/11/30 11:17:01;;;;;;;17.57;11.20;;;;;;;7.38;100.00;98543.09;4935046;29;20224;-82
2022/11/30 11:19:34;;;;;;;15.50;10.30;;;;;;;7.42;100.00;98541.16;4935378;29;20236;-82
2022/11/30 11:22:04;;;;;;;17.30;10.43;;;;;;;7.44;100.00;98544.53;4935782;29;20215;-80
2022/11/30 11:24:31;;;;;;;13.93;9.37;;;;;;;7.47;100.00;98544.41;4935247;29;20330;-80
2022/11/30 11:26:59;;;;;;;17.90;11.33;;;;;;;7.52;100.00;98548.50;4934784;29;20651;-82